createdAt,value
2019-01-09T00:00:50.329Z,6.30
2019-01-09T00:03:18.461Z,6.10
2019-01-09T00:05:46.481Z,6.40
2019-01-09T00:08:17.295Z,6.20
2019-01-09T00:10:45.671Z,6.30
2019-01-09T00:13:14.048Z,6.20
2019-01-09T00:15:42.437Z,6.20
2019-01-09T00:18:10.268Z,6.30
2019-01-09T00:20:38.639Z,6.40
2019-01-09T00:23:06.814Z,6.70
2019-01-09T00:25:34.740Z,6.90
2019-01-09T00:28:03.130Z,6.50
2019-01-09T00:30:31.034Z,6.20
2019-01-09T00:32:58.875Z,6.00
2019-01-09T00:35:27.088Z,6.10
2019-01-09T00:37:54.947Z,5.90
2019-01-09T00:40:23.107Z,6.00
2019-01-09T00:42:52.355Z,6.00
2019-01-09T00:45:20.370Z,6.00
2019-01-09T00:47:48.504Z,5.90
2019-01-09T00:50:16.455Z,6.10
2019-01-09T00:52:44.451Z,6.10
2019-01-09T00:55:12.646Z,6.50
2019-01-09T00:57:40.771Z,6.20
2019-01-09T01:00:14.366Z,6.10
2019-01-09T01:04:11.616Z,5.90
2019-01-09T01:07:31.831Z,5.90
2019-01-09T01:11:05.260Z,5.90
2019-01-09T01:14:51.771Z,5.80
2019-01-09T01:18:22.785Z,6.00
2019-01-09T01:21:19.013Z,5.80
2019-01-09T01:24:47.076Z,5.60
2019-01-09T01:27:41.088Z,5.80
2019-01-09T01:31:17.282Z,5.80
2019-01-09T01:38:40.003Z,5.30
2019-01-09T01:41:41.829Z,5.30
2019-01-09T01:44:54.773Z,5.00
2019-01-09T01:47:54.556Z,5.20
2019-01-09T01:51:28.260Z,5.20
2019-01-09T01:54:50.778Z,5.10
2019-01-09T01:58:00.471Z,5.20
2019-01-09T02:01:15.035Z,5.50
2019-01-09T02:04:28.198Z,5.50
2019-01-09T02:07:36.749Z,5.40
2019-01-09T02:11:18.101Z,5.40
2019-01-09T02:14:35.225Z,5.20
2019-01-09T02:18:09.590Z,5.80
2019-01-09T02:21:36.511Z,5.60
2019-01-09T02:29:25.514Z,5.40
2019-01-09T02:32:31.830Z,5.50
2019-01-09T02:35:00.204Z,5.30
2019-01-09T02:37:28.591Z,5.40
2019-01-09T02:39:56.661Z,5.50
2019-01-09T02:42:24.539Z,5.40
2019-01-09T02:44:52.357Z,5.50
2019-01-09T02:47:20.784Z,5.60
2019-01-09T02:49:48.872Z,5.50
2019-01-09T02:52:16.866Z,5.80
2019-01-09T02:54:45.877Z,5.50
2019-01-09T02:57:13.905Z,5.80
2019-01-09T02:59:41.959Z,5.70
2019-01-09T03:02:09.959Z,5.70
2019-01-09T03:04:38.387Z,5.20
2019-01-09T03:07:06.686Z,5.50
2019-01-09T03:09:35.546Z,5.50
2019-01-09T03:12:03.441Z,5.20
2019-01-09T03:14:35.284Z,5.40
2019-01-09T03:17:04.427Z,5.40
2019-01-09T03:19:32.746Z,5.50
2019-01-09T03:22:04.050Z,5.50
2019-01-09T03:24:32.843Z,5.80
2019-01-09T03:27:03.177Z,5.50
2019-01-09T03:29:32.683Z,5.50
2019-01-09T03:32:02.489Z,6.00
2019-01-09T03:34:30.818Z,5.60
2019-01-09T03:36:58.895Z,5.50
2019-01-09T03:39:27.016Z,5.60
2019-01-09T03:41:55.420Z,5.40
2019-01-09T03:44:23.962Z,5.40
2019-01-09T03:46:52.466Z,5.60
2019-01-09T03:49:23.752Z,5.40
2019-01-09T03:51:52.135Z,5.60
2019-01-09T03:54:22.652Z,5.50
2019-01-09T03:56:51.546Z,5.20
2019-01-09T03:59:19.825Z,5.20
2019-01-09T04:01:48.340Z,5.40
2019-01-09T04:04:18.979Z,5.40
2019-01-09T04:06:47.941Z,5.30
2019-01-09T04:09:15.926Z,5.20
2019-01-09T04:11:43.906Z,5.10
2019-01-09T04:14:13.532Z,5.50
2019-01-09T04:16:43.559Z,5.40
2019-01-09T04:19:11.359Z,5.50
2019-01-09T04:21:39.350Z,5.20
2019-01-09T04:24:07.461Z,5.40
2019-01-09T04:26:36.085Z,5.40
2019-01-09T04:29:04.827Z,5.20
2019-01-09T04:31:33.033Z,5.30
2019-01-09T04:34:00.976Z,5.60
2019-01-09T04:36:28.853Z,5.60
2019-01-09T04:38:56.891Z,5.70
2019-01-09T04:41:24.726Z,5.90
2019-01-09T04:43:53.133Z,5.50
2019-01-09T04:46:21.130Z,5.70
2019-01-09T04:48:50.543Z,5.60
2019-01-09T04:51:18.376Z,5.70
2019-01-09T04:53:46.419Z,5.60
2019-01-09T04:56:14.387Z,5.50
2019-01-09T04:58:43.426Z,5.60
2019-01-09T05:01:11.751Z,5.50
2019-01-09T05:03:40.846Z,5.60
2019-01-09T05:06:09.002Z,5.50
2019-01-09T05:08:37.029Z,5.70
2019-01-09T05:11:05.075Z,5.60
2019-01-09T05:13:34.269Z,5.50
2019-01-09T05:16:02.213Z,5.80
2019-01-09T05:18:32.313Z,5.30
2019-01-09T05:21:00.487Z,5.50
2019-01-09T05:23:30.205Z,5.80
2019-01-09T05:25:58.093Z,5.80
2019-01-09T05:28:26.020Z,5.70
2019-01-09T05:30:54.063Z,5.50
2019-01-09T05:33:22.238Z,5.70
2019-01-09T05:35:50.511Z,5.70
2019-01-09T05:38:18.898Z,5.40
2019-01-09T05:40:47.105Z,5.80
2019-01-09T05:43:15.599Z,5.40
2019-01-09T05:45:44.662Z,5.40
2019-01-09T05:48:13.386Z,5.70
2019-01-09T05:50:41.254Z,5.80
2019-01-09T05:53:09.349Z,5.70
2019-01-09T05:55:38.405Z,5.70
2019-01-09T05:58:07.551Z,5.40
2019-01-09T06:00:39.373Z,5.70
2019-01-09T06:03:07.773Z,5.50
2019-01-09T06:05:36.698Z,5.20
2019-01-09T06:08:04.652Z,5.50
2019-01-09T06:10:33.184Z,5.50
2019-01-09T06:13:01.078Z,5.30
2019-01-09T06:15:29.028Z,5.10
2019-01-09T06:17:56.965Z,5.10
2019-01-09T06:20:25.417Z,5.40
2019-01-09T06:22:53.595Z,5.40
2019-01-09T06:25:21.600Z,5.20
2019-01-09T06:27:49.438Z,5.40
2019-01-09T06:30:17.326Z,5.40
2019-01-09T06:32:45.292Z,5.40
2019-01-09T06:35:13.175Z,5.40
2019-01-09T06:37:41.513Z,5.40
2019-01-09T06:40:09.526Z,5.40
2019-01-09T06:42:37.890Z,5.10
2019-01-09T06:45:06.212Z,5.30
2019-01-09T06:47:34.087Z,5.50
2019-01-09T06:50:02.203Z,5.30
2019-01-09T06:52:33.955Z,5.20
2019-01-09T06:55:02.285Z,5.70
2019-01-09T06:57:30.547Z,5.60
2019-01-09T07:00:01.381Z,5.50
2019-01-09T07:02:29.364Z,5.70
2019-01-09T07:04:57.320Z,5.50
2019-01-09T07:07:25.906Z,5.40
2019-01-09T07:09:53.823Z,5.20
2019-01-09T07:12:21.885Z,5.50
2019-01-09T07:14:50.213Z,5.60
2019-01-09T07:17:19.269Z,5.70
2019-01-09T07:19:47.465Z,5.80
2019-01-09T07:22:15.468Z,5.60
2019-01-09T07:24:43.440Z,5.90
2019-01-09T07:27:11.575Z,5.80
2019-01-09T07:29:41.550Z,6.10
2019-01-09T07:32:09.409Z,6.20
2019-01-09T07:34:39.128Z,6.00
2019-01-09T07:37:09.133Z,5.50
2019-01-09T07:39:37.434Z,5.80
2019-01-09T07:42:05.353Z,5.70
2019-01-09T07:44:33.352Z,5.80
2019-01-09T07:47:01.620Z,5.60
2019-01-09T07:49:30.211Z,5.50
2019-01-09T07:52:00.859Z,5.20
2019-01-09T07:54:31.291Z,5.40
2019-01-09T07:56:59.626Z,5.30
2019-01-09T07:59:27.485Z,5.50
2019-01-09T08:01:57.317Z,5.20
2019-01-09T08:04:25.393Z,5.40
2019-01-09T08:06:53.506Z,5.40
2019-01-09T08:09:21.628Z,5.50
2019-01-09T08:11:49.620Z,5.30
2019-01-09T08:14:17.575Z,5.70
2019-01-09T08:16:45.769Z,5.50
2019-01-09T08:19:14.123Z,5.80
2019-01-09T08:21:41.971Z,5.60
2019-01-09T08:24:10.187Z,5.50
2019-01-09T08:26:38.503Z,5.50
2019-01-09T08:29:07.302Z,5.60
2019-01-09T08:31:35.419Z,6.00
2019-01-09T08:34:04.260Z,5.90
2019-01-09T08:36:32.539Z,5.90
2019-01-09T08:39:04.550Z,6.20
2019-01-09T08:41:33.798Z,6.20
2019-01-09T08:44:02.283Z,6.20
2019-01-09T08:46:30.263Z,6.00
2019-01-09T08:48:58.554Z,6.10
2019-01-09T08:51:28.644Z,5.80
2019-01-09T08:53:57.010Z,6.00
2019-01-09T08:56:24.936Z,5.90
2019-01-09T08:58:53.107Z,5.70
2019-01-09T09:01:21.106Z,5.60
2019-01-09T09:03:49.419Z,5.70
2019-01-09T09:06:17.585Z,6.10
2019-01-09T09:08:46.068Z,6.00
2019-01-09T09:11:14.052Z,6.00
2019-01-09T09:13:42.205Z,5.80
2019-01-09T09:16:11.657Z,5.90
2019-01-09T09:18:39.723Z,5.90
2019-01-09T09:21:11.196Z,6.20
2019-01-09T09:23:39.363Z,6.20
2019-01-09T09:26:07.356Z,5.90
2019-01-09T09:28:35.228Z,6.00
2019-01-09T09:31:04.298Z,6.30
2019-01-09T09:33:32.588Z,6.50
2019-01-09T09:36:00.481Z,6.40
2019-01-09T09:38:28.319Z,6.50
2019-01-09T09:40:56.275Z,6.60
2019-01-09T09:43:24.136Z,6.70
2019-01-09T09:45:51.966Z,6.80
2019-01-09T09:48:19.939Z,6.80
2019-01-09T09:50:48.548Z,6.60
2019-01-09T09:53:17.304Z,6.70
2019-01-09T09:55:45.319Z,6.90
2019-01-09T09:58:13.203Z,6.90
2019-01-09T10:00:43.013Z,7.00
2019-01-09T10:03:10.918Z,7.30
2019-01-09T10:05:41.949Z,7.00
2019-01-09T10:08:09.800Z,7.10
2019-01-09T10:10:39.314Z,7.00
2019-01-09T10:13:08.685Z,7.30
2019-01-09T10:15:39.184Z,7.10
2019-01-09T10:18:07.280Z,7.40
2019-01-09T10:20:35.937Z,7.40
2019-01-09T10:23:03.892Z,7.50
2019-01-09T10:25:32.351Z,7.40
2019-01-09T10:28:00.183Z,7.40
2019-01-09T10:30:28.089Z,7.40
2019-01-09T10:32:56.102Z,7.40
2019-01-09T10:35:25.093Z,7.40
2019-01-09T10:37:53.488Z,8.00
2019-01-09T10:40:21.387Z,7.60
2019-01-09T10:42:49.399Z,7.40
2019-01-09T10:45:20.463Z,7.60
2019-01-09T10:47:48.478Z,7.70
2019-01-09T10:50:17.216Z,7.60
2019-01-09T10:52:45.392Z,7.40
2019-01-09T10:55:15.393Z,7.50
2019-01-09T10:57:43.458Z,7.40
2019-01-09T11:00:16.752Z,7.70
2019-01-09T11:02:47.256Z,7.70
2019-01-09T11:05:15.194Z,7.80
2019-01-09T11:07:43.188Z,8.10
2019-01-09T11:10:12.723Z,7.70
2019-01-09T11:12:40.841Z,7.70
2019-01-09T11:15:11.213Z,7.80
2019-01-09T11:17:39.446Z,7.50
2019-01-09T11:20:13.677Z,7.70
2019-01-09T11:22:41.569Z,7.70
2019-01-09T11:25:16.647Z,7.70
2019-01-09T11:27:45.781Z,8.00
2019-01-09T11:30:16.715Z,8.10
2019-01-09T11:32:45.051Z,7.90
2019-01-09T11:35:15.367Z,7.90
2019-01-09T11:37:44.550Z,8.10
2019-01-09T11:40:14.505Z,8.30
2019-01-09T11:42:42.991Z,8.30
2019-01-09T11:45:13.164Z,8.40
2019-01-09T11:47:42.301Z,8.10
2019-01-09T11:50:12.484Z,8.10
2019-01-09T11:52:40.330Z,8.40
2019-01-09T11:55:10.680Z,8.30
2019-01-09T11:57:38.634Z,8.10
2019-01-09T12:00:17.787Z,8.70
2019-01-09T12:02:48.655Z,8.40
2019-01-09T12:05:18.199Z,8.10
2019-01-09T12:07:46.203Z,8.40
2019-01-09T12:10:17.017Z,8.30
2019-01-09T12:12:45.914Z,8.50
2019-01-09T12:15:16.565Z,8.40
2019-01-09T12:17:45.992Z,8.10
2019-01-09T12:20:16.321Z,8.10
2019-01-09T12:22:45.008Z,8.20
2019-01-09T12:25:13.491Z,8.50
2019-01-09T12:27:41.470Z,8.30
2019-01-09T12:30:18.289Z,8.40
2019-01-09T12:32:46.665Z,8.20
2019-01-09T12:35:15.193Z,8.40
2019-01-09T12:37:44.867Z,8.20
2019-01-09T12:40:13.112Z,8.60
2019-01-09T12:42:40.980Z,8.70
2019-01-09T12:45:15.118Z,9.20
2019-01-09T12:47:45.873Z,8.60
2019-01-09T12:50:22.021Z,8.70
2019-01-09T12:52:49.884Z,8.90
2019-01-09T12:55:18.095Z,9.20
2019-01-09T12:57:47.024Z,9.20
2019-01-09T13:00:24.141Z,9.20
2019-01-09T13:02:52.944Z,8.90
2019-01-09T13:05:20.900Z,8.70
2019-01-09T13:07:49.905Z,9.20
2019-01-09T13:10:20.077Z,9.20
2019-01-09T13:12:48.485Z,9.10
2019-01-09T13:15:17.244Z,9.20
2019-01-09T13:17:45.900Z,8.90
2019-01-09T13:20:14.506Z,9.20
2019-01-09T13:22:42.525Z,9.20
2019-01-09T13:25:12.218Z,9.20
2019-01-09T13:27:45.179Z,9.20
2019-01-09T13:30:19.324Z,8.90
2019-01-09T13:32:47.729Z,9.20
2019-01-09T13:35:17.209Z,9.10
2019-01-09T13:37:46.514Z,9.10
2019-01-09T13:40:17.766Z,9.10
2019-01-09T13:42:45.774Z,8.90
2019-01-09T13:45:16.794Z,9.20
2019-01-09T13:47:44.948Z,9.30
2019-01-09T13:50:14.202Z,9.00
2019-01-09T13:52:42.401Z,8.80
2019-01-09T13:55:12.131Z,8.80
2019-01-09T13:57:40.174Z,8.70
2019-01-09T14:00:14.849Z,8.80
2019-01-09T14:02:42.852Z,8.60
2019-01-09T14:05:11.661Z,8.60
2019-01-09T14:07:39.698Z,8.90
2019-01-09T14:10:11.238Z,8.90
2019-01-09T14:12:39.293Z,8.60
2019-01-09T14:15:10.574Z,8.70
2019-01-09T14:17:38.528Z,8.50
2019-01-09T14:20:09.230Z,8.70
2019-01-09T14:22:38.622Z,8.80
2019-01-09T14:25:08.523Z,8.50
2019-01-09T14:27:36.596Z,8.60
2019-01-09T14:30:09.065Z,8.80
2019-01-09T14:32:37.030Z,9.00
2019-01-09T14:35:06.544Z,8.70
2019-01-09T14:37:34.580Z,8.70
2019-01-09T14:40:02.895Z,8.30
2019-01-09T14:42:31.890Z,8.50
2019-01-09T14:44:59.750Z,8.10
2019-01-09T14:47:27.653Z,8.30
2019-01-09T14:49:55.664Z,7.90
2019-01-09T14:52:23.618Z,8.30
2019-01-09T14:54:51.437Z,8.10
2019-01-09T14:57:19.310Z,8.40
2019-01-09T14:59:47.291Z,8.20
2019-01-09T15:02:15.166Z,7.90
2019-01-09T15:04:43.187Z,7.90
2019-01-09T15:07:11.041Z,8.10
2019-01-09T15:09:39.037Z,8.10
2019-01-09T15:12:07.074Z,7.70
2019-01-09T15:14:34.851Z,8.00
2019-01-09T15:17:02.679Z,7.80
2019-01-09T15:19:30.620Z,7.70
2019-01-09T15:21:59.458Z,8.00
2019-01-09T15:24:27.538Z,7.60
2019-01-09T15:26:55.724Z,7.40
2019-01-09T15:29:23.644Z,7.60
2019-01-09T15:31:51.481Z,7.30
2019-01-09T15:34:19.409Z,7.50
2019-01-09T15:36:47.368Z,7.20
2019-01-09T15:39:15.304Z,7.10
2019-01-09T15:41:43.298Z,7.20
2019-01-09T15:44:14.313Z,7.00
2019-01-09T15:46:42.122Z,7.20
2019-01-09T15:49:10.146Z,7.20
2019-01-09T15:51:37.941Z,7.20
2019-01-09T15:54:05.743Z,6.90
2019-01-09T15:56:34.030Z,6.60
2019-01-09T15:59:01.942Z,6.70
2019-01-09T16:01:29.731Z,6.70
2019-01-09T16:03:57.666Z,7.00
2019-01-09T16:06:25.485Z,6.90
2019-01-09T16:08:53.286Z,6.60
2019-01-09T16:11:21.238Z,6.60
2019-01-09T16:13:49.050Z,6.70
2019-01-09T16:16:17.029Z,6.90
2019-01-09T16:18:44.833Z,6.80
2019-01-09T16:21:12.625Z,6.80
2019-01-09T16:23:40.531Z,6.90
2019-01-09T16:26:08.548Z,6.90
2019-01-09T16:28:36.417Z,6.80
2019-01-09T16:31:40.477Z,6.60
2019-01-09T16:34:08.447Z,6.70
2019-01-09T16:36:36.706Z,6.70
2019-01-09T16:39:08.900Z,6.40
2019-01-09T16:41:36.713Z,6.60
2019-01-09T16:44:04.826Z,6.60
2019-01-09T16:46:32.625Z,6.50
2019-01-09T16:49:00.683Z,6.30
2019-01-09T16:51:28.546Z,6.40
2019-01-09T16:53:56.349Z,6.90
2019-01-09T16:56:24.318Z,6.50
2019-01-09T16:58:52.290Z,6.60
2019-01-09T17:01:20.114Z,6.40
2019-01-09T17:03:47.928Z,6.20
2019-01-09T17:06:15.890Z,6.50
2019-01-09T17:08:43.785Z,6.30
2019-01-09T17:11:11.602Z,6.40
2019-01-09T17:13:39.415Z,6.50
2019-01-09T17:16:07.353Z,6.10
2019-01-09T17:18:35.277Z,6.50
2019-01-09T17:21:03.268Z,5.90
2019-01-09T17:23:31.182Z,6.10
2019-01-09T17:31:23.227Z,6.10
2019-01-09T17:33:51.351Z,6.20
2019-01-09T17:36:19.260Z,5.90
2019-01-09T17:38:47.030Z,6.00
2019-01-09T17:41:14.812Z,6.10
2019-01-09T17:43:42.979Z,5.80
2019-01-09T17:46:11.083Z,6.00
2019-01-09T17:48:41.019Z,6.20
2019-01-09T17:51:08.921Z,5.80
2019-01-09T17:53:36.781Z,6.00
2019-01-09T17:56:04.712Z,6.10
2019-01-09T17:58:32.916Z,6.20
2019-01-09T18:01:00.856Z,6.10
2019-01-09T18:03:28.806Z,5.90
2019-01-09T18:05:56.775Z,5.90
2019-01-09T18:08:24.696Z,5.80
2019-01-09T18:10:54.373Z,6.10
2019-01-09T18:13:22.405Z,6.10
2019-01-09T18:15:50.338Z,6.00
2019-01-09T18:18:18.277Z,5.50
2019-01-09T18:20:46.311Z,5.50
2019-01-09T18:23:14.813Z,5.60
2019-01-09T18:25:42.683Z,5.50
2019-01-09T18:28:10.826Z,5.20
2019-01-09T18:31:23.388Z,5.60
2019-01-09T18:34:30.571Z,5.70
2019-01-09T18:37:57.301Z,5.60
2019-01-09T18:41:19.864Z,5.80
2019-01-09T18:44:09.757Z,5.70
2019-01-09T18:47:18.582Z,5.40
2019-01-09T18:51:08.848Z,5.30
2019-01-09T18:53:45.001Z,5.40
2019-01-09T18:56:13.905Z,5.20
2019-01-09T18:58:41.795Z,5.20
2019-01-09T19:01:10.364Z,5.40
2019-01-09T19:03:38.548Z,5.20
2019-01-09T19:06:09.070Z,5.40
2019-01-09T19:08:37.020Z,5.20
2019-01-09T19:11:07.772Z,5.40
2019-01-09T19:13:35.582Z,5.40
2019-01-09T19:16:05.305Z,5.30
2019-01-09T19:18:33.371Z,5.30
2019-01-09T19:21:01.431Z,5.30
2019-01-09T19:23:31.705Z,5.40
2019-01-09T19:26:02.230Z,5.40
2019-01-09T19:28:30.555Z,5.40
2019-01-09T19:30:58.526Z,5.40
2019-01-09T19:33:26.376Z,5.30
2019-01-09T19:35:54.211Z,5.30
2019-01-09T19:38:22.209Z,5.40
2019-01-09T19:40:50.616Z,5.00
2019-01-09T19:43:18.590Z,5.40
2019-01-09T19:45:48.039Z,5.50
2019-01-09T19:48:16.075Z,5.20
2019-01-09T19:50:43.962Z,5.30
2019-01-09T19:53:12.644Z,5.10
2019-01-09T19:55:40.823Z,5.30
2019-01-09T19:58:08.889Z,5.40
2019-01-09T20:00:36.733Z,5.50
2019-01-09T20:03:04.727Z,4.80
2019-01-09T20:05:32.677Z,5.00
2019-01-09T20:08:00.495Z,5.00
2019-01-09T20:10:28.436Z,5.10
2019-01-09T20:12:56.931Z,5.20
2019-01-09T20:15:24.931Z,5.10
2019-01-09T20:17:53.115Z,5.00
2019-01-09T20:20:27.994Z,5.10
2019-01-09T20:22:55.917Z,4.90
2019-01-09T20:25:24.592Z,5.10
2019-01-09T20:27:52.673Z,4.90
2019-01-09T20:30:28.932Z,5.10
2019-01-09T20:32:59.978Z,4.90
2019-01-09T20:35:28.079Z,5.10
2019-01-09T20:37:57.520Z,5.00
2019-01-09T20:40:26.202Z,5.10
2019-01-09T20:43:03.576Z,5.00
2019-01-09T20:45:29.258Z,4.80
2019-01-09T20:47:57.370Z,5.10
2019-01-09T20:50:28.682Z,5.00
2019-01-09T20:52:56.663Z,5.00
2019-01-09T20:55:24.612Z,5.10
2019-01-09T20:57:52.600Z,4.90
2019-01-09T21:00:29.216Z,5.10
2019-01-09T21:03:07.375Z,4.70
2019-01-09T21:05:39.679Z,4.80
2019-01-09T21:08:07.914Z,5.10
2019-01-09T21:10:38.421Z,5.20
2019-01-09T21:13:06.801Z,5.10
2019-01-09T21:15:36.031Z,5.30
2019-01-09T21:18:04.172Z,4.80
2019-01-09T21:20:32.299Z,5.00
2019-01-09T21:23:00.383Z,4.80
2019-01-09T21:25:31.200Z,4.80
2019-01-09T21:27:59.063Z,4.70
2019-01-09T21:30:27.074Z,5.00
2019-01-09T21:32:58.063Z,4.60
2019-01-09T21:35:27.993Z,4.80
2019-01-09T21:37:55.902Z,4.80
2019-01-09T21:40:27.012Z,4.50
2019-01-09T21:42:54.941Z,4.80
2019-01-09T21:45:23.353Z,4.60
2019-01-09T21:47:54.173Z,4.50
2019-01-09T21:50:23.871Z,4.80
2019-01-09T21:52:51.875Z,4.50
2019-01-09T21:55:19.986Z,4.50
2019-01-09T21:57:48.076Z,4.60
2019-01-09T22:00:22.559Z,4.80
2019-01-09T22:02:50.570Z,4.50
2019-01-09T22:05:19.203Z,4.50
2019-01-09T22:07:47.138Z,4.80
2019-01-09T22:10:24.630Z,4.80
2019-01-09T22:12:52.592Z,4.70
2019-01-09T22:15:20.688Z,4.60
2019-01-09T22:17:48.647Z,4.80
2019-01-09T22:20:16.593Z,4.80
2019-01-09T22:22:45.406Z,4.50
2019-01-09T22:25:14.185Z,4.90
2019-01-09T22:27:43.120Z,4.60
2019-01-09T22:30:19.042Z,4.80
2019-01-09T22:32:47.036Z,4.60
2019-01-09T22:35:15.337Z,4.70
2019-01-09T22:37:43.343Z,4.80
2019-01-09T22:40:13.701Z,4.80
2019-01-09T22:42:41.575Z,4.70
2019-01-09T22:45:10.754Z,4.50
2019-01-09T22:47:38.976Z,4.70
2019-01-09T22:50:10.481Z,4.30
2019-01-09T22:52:38.366Z,4.30
2019-01-09T22:55:07.381Z,4.40
2019-01-09T22:57:35.368Z,4.40
2019-01-09T23:00:46.948Z,4.20
2019-01-09T23:03:17.312Z,4.30
2019-01-09T23:05:48.200Z,4.10
2019-01-09T23:08:16.460Z,4.40
2019-01-09T23:10:44.457Z,4.70
2019-01-09T23:13:14.657Z,4.50
2019-01-09T23:15:42.707Z,4.60
2019-01-09T23:18:10.656Z,4.50
2019-01-09T23:20:38.834Z,4.10
2019-01-09T23:23:08.398Z,4.40
2019-01-09T23:25:36.458Z,4.10
2019-01-09T23:28:07.544Z,4.10
2019-01-09T23:30:35.434Z,4.20
2019-01-09T23:33:04.072Z,4.50
2019-01-09T23:35:32.126Z,4.40
2019-01-09T23:37:59.965Z,4.40
2019-01-09T23:40:31.047Z,4.40
2019-01-09T23:43:00.828Z,4.10
2019-01-09T23:45:28.784Z,4.50
2019-01-09T23:47:56.830Z,4.20
2019-01-09T23:50:24.691Z,4.10
2019-01-09T23:52:52.581Z,4.30
2019-01-09T23:55:21.660Z,4.00
2019-01-09T23:57:49.621Z,3.80
